Elka Sirius — A8GQ7 — position and weather

sailwx.info

Track history (hours):
 
Tides and Currents Weather Stations Pressure Air Temp Water Temp Dewpoint Dewpoint Depression Visibility Wind Speed Wind Dir Waves Ship Positions

Elka Sirius

Last reported at 2018-Jan-19 07:26 UTC. Time now 2018-Jan-19 08:01 UTC.
Position N 50°03' W 005°23'.

Length 189 m; draft 8 m.

Type: Tanker. MMSI: 636012627.

Date/timePositionNaut miles runAvg speedWind from/ knotsBaromVisibWave heightAir tempDewpointWater temp
2018-Jan-19 07:26N 50°03' W 005°23'0 0.0
2018-Jan-19 06:53N 50°03' W 005°23'0 0.0
2018-Jan-19 05:26N 50°03' W 005°23'0 0.0
2018-Jan-19 04:44N 50°03' W 005°23'0 0.0
2018-Jan-19 04:29N 50°03' W 005°23'0 0.0
2018-Jan-19 03:50N 50°03' W 005°23'0 0.1
2018-Jan-19 03:29N 50°03' W 005°23'0 0.1
2018-Jan-19 02:56N 50°03' W 005°23'0 0.1
2018-Jan-19 02:26N 50°03' W 005°23'0 0.1
2018-Jan-19 01:53N 50°03' W 005°23'0 0.1
2018-Jan-19 01:26N 50°03' W 005°23'0 0.0
2018-Jan-19 00:56N 50°03' W 005°23'0 0.0
2018-Jan-19 00:29N 50°03' W 005°23'0 0.0
2018-Jan-18 23:44N 50°03' W 005°23'0 0.4
2018-Jan-18 23:26N 50°03' W 005°23'0 0.2
2018-Jan-18 22:53N 50°03' W 005°23'0 0.0
2018-Jan-18 22:23N 50°03' W 005°23'0 0.1
2018-Jan-18 21:26N 50°03' W 005°23'0 0.1
2018-Jan-18 20:47N 50°03' W 005°23'0 0.8
2018-Jan-18 20:31N 50°03' W 005°23'2 3.9
2018-Jan-18 20:00N 50°01' W 005°24'4 8.4
2018-Jan-18 19:29N 49°57' W 005°26'61 9.7
2018-Jan-18 13:09N 48°55' W 005°28'1 9.3
2018-Jan-18 13:00N 48°54' W 005°27'44 7.3
2018-Jan-18 06:58N 48°10' W 005°32'7 6.9
2018-Jan-18 05:58N 48°04' W 005°31'  
2018-Jan-12 15:00N 36°11' W 005°10'0 0.2
2018-Jan-12 14:30N 36°11' W 005°10'0 0.4
2018-Jan-12 14:00N 36°11' W 005°10'3 5.2
2018-Jan-12 13:28N 36°11' W 005°06'2 4.3
2018-Jan-12 13:00N 36°09' W 005°05'3 5.6
2018-Jan-12 12:30N 36°07' W 005°08'3 5.4
2018-Jan-12 11:59N 36°05' W 005°11'3 6.4
2018-Jan-12 11:31N 36°03' W 005°13'612.1
2018-Jan-12 11:00N 36°05' W 005°21'5 9.9
2018-Jan-12 10:30N 36°09' W 005°24'1 1.1
2018-Jan-12 10:00N 36°09' W 005°25'0 0.0
2018-Jan-12 09:27N 36°09' W 005°25'0 0.1
2018-Jan-12 09:00N 36°09' W 005°25'0 0.0
2018-Jan-12 08:30N 36°09' W 005°25'0 0.0
2018-Jan-12 08:00N 36°09' W 005°25'0 0.0
2018-Jan-12 07:30N 36°09' W 005°25'0 0.1
2018-Jan-12 07:00N 36°09' W 005°25'0 0.0
2018-Jan-12 06:30N 36°09' W 005°25'0 0.0
2018-Jan-12 06:00N 36°09' W 005°25'0 0.1
2018-Jan-12 05:30N 36°09' W 005°25'0 0.0
2018-Jan-12 05:00N 36°09' W 005°25'0 0.1
2018-Jan-12 04:27N 36°09' W 005°25'0 0.0
2018-Jan-12 04:00N 36°09' W 005°25'0 0.1
2018-Jan-12 03:30N 36°09' W 005°25'0 0.1
2018-Jan-12 02:57N 36°09' W 005°25'0 0.0
2018-Jan-12 02:28N 36°09' W 005°25'0 0.0
2018-Jan-12 02:00N 36°09' W 005°25'0 0.0
2018-Jan-12 01:30N 36°09' W 005°25'0 0.0
2018-Jan-12 01:00N 36°09' W 005°25'0 0.0
2018-Jan-12 00:30N 36°09' W 005°25'0 0.0
2018-Jan-12 00:00N 36°09' W 005°25'0 0.0
2018-Jan-11 23:30N 36°09' W 005°25'0 0.0
2018-Jan-11 23:00N 36°09' W 005°25'0 0.0
2018-Jan-11 22:30N 36°09' W 005°25'0 0.0
2018-Jan-11 22:00N 36°09' W 005°25'0 0.1
2018-Jan-11 21:30N 36°09' W 005°25'0 0.0
2018-Jan-11 21:00N 36°09' W 005°25'0 0.0
2018-Jan-11 20:30N 36°09' W 005°25'0 0.0
2018-Jan-11 20:00N 36°09' W 005°25'0 0.0
2018-Jan-11 19:30N 36°09' W 005°25'0 0.0
2018-Jan-11 19:00N 36°09' W 005°25'0 0.1
2018-Jan-11 18:30N 36°09' W 005°25'0 0.0
2018-Jan-11 18:00N 36°09' W 005°25'0 0.0
2018-Jan-11 17:30N 36°09' W 005°25'0 0.0
2018-Jan-11 16:42N 36°09' W 005°25'0 0.1
2018-Jan-11 16:30N 36°09' W 005°25'0 0.0
2018-Jan-11 16:00N 36°09' W 005°25'0 0.0
2018-Jan-11 15:30N 36°09' W 005°25'0 0.0
2018-Jan-11 15:00N 36°09' W 005°25'0 0.1
2018-Jan-11 14:30N 36°09' W 005°25'0 0.0
2018-Jan-11 13:54N 36°09' W 005°25'0 0.1
2018-Jan-11 13:30N 36°09' W 005°25'0 0.0
2018-Jan-11 13:00N 36°09' W 005°25'0 0.0
2018-Jan-11 12:30N 36°09' W 005°25'0 0.0
2018-Jan-11 12:00N 36°09' W 005°25'0 0.0
2018-Jan-11 11:18N 36°09' W 005°25'0 0.1
2018-Jan-11 11:00N 36°09' W 005°25'0 0.0
2018-Jan-11 10:30N 36°09' W 005°25'0 0.0
2018-Jan-11 10:00N 36°09' W 005°25'0 0.0
2018-Jan-11 09:30N 36°09' W 005°25'0 0.1
2018-Jan-11 09:00N 36°09' W 005°25'0 0.0
2018-Jan-11 08:30N 36°09' W 005°25'0 0.0
2018-Jan-11 07:49N 36°09' W 005°25'0 0.0
2018-Jan-11 07:24N 36°09' W 005°25'0 0.0
2018-Jan-11 07:00N 36°09' W 005°25'0 0.0
2018-Jan-11 06:30N 36°09' W 005°25'0 0.0
2018-Jan-11 06:00N 36°09' W 005°25'0 0.0
2018-Jan-11 05:30N 36°09' W 005°25'0 0.1
2018-Jan-11 05:00N 36°09' W 005°25'0 0.1
2018-Jan-11 04:30N 36°09' W 005°25'0 0.0
2018-Jan-11 04:00N 36°09' W 005°25'0 0.0
2018-Jan-11 03:30N 36°09' W 005°25'0 0.0
2018-Jan-11 03:00N 36°09' W 005°25'0 0.0
2018-Jan-11 02:30N 36°09' W 005°25'0 0.0
2018-Jan-11 02:00N 36°09' W 005°25'0 0.0
2018-Jan-11 01:30N 36°09' W 005°25'0 0.0
2018-Jan-11 01:00N 36°09' W 005°25'0 0.0
2018-Jan-11 00:30N 36°09' W 005°25'0 0.0
2018-Jan-11 00:00N 36°09' W 005°25'0 0.0
2018-Jan-10 23:30N 36°09' W 005°25'0 0.0
2018-Jan-10 23:00N 36°09' W 005°25'0 0.0
2018-Jan-10 22:30N 36°09' W 005°25'0 0.1
2018-Jan-10 21:59N 36°09' W 005°25'0 0.0
2018-Jan-10 21:30N 36°09' W 005°25'0 0.0
2018-Jan-10 20:59N 36°09' W 005°25'0 0.0
2018-Jan-10 20:29N 36°09' W 005°25'0 0.0
2018-Jan-10 19:59N 36°09' W 005°25'0 0.0
2018-Jan-10 19:29N 36°09' W 005°25'0 0.0
2018-Jan-10 18:59N 36°09' W 005°25'0 0.0
2018-Jan-10 18:29N 36°09' W 005°25'0 0.0
2018-Jan-10 17:57N 36°09' W 005°25'0 0.0
2018-Jan-10 17:29N 36°09' W 005°25'0 0.0
2018-Jan-10 16:59N 36°09' W 005°25'0 0.1
2018-Jan-10 16:30N 36°09' W 005°25'0 0.0
2018-Jan-10 15:59N 36°09' W 005°25'0 0.0
2018-Jan-10 15:29N 36°09' W 005°25'0 0.0
2018-Jan-10 14:59N 36°09' W 005°25'0 0.0
2018-Jan-10 14:30N 36°09' W 005°25'0 0.0
2018-Jan-10 13:59N 36°09' W 005°25'0 0.0
2018-Jan-10 13:27N 36°09' W 005°25'0 0.0
2018-Jan-10 12:59N 36°09' W 005°25'0 0.1
2018-Jan-10 12:29N 36°09' W 005°25'0 0.0
2018-Jan-10 11:59N 36°09' W 005°25'0 0.0
2018-Jan-10 11:27N 36°09' W 005°25'0 0.0
2018-Jan-10 10:57N 36°09' W 005°25'0 0.0
2018-Jan-10 10:30N 36°09' W 005°25'0 0.0
2018-Jan-10 10:00N 36°09' W 005°25'0 0.0
2018-Jan-10 09:30N 36°09' W 005°25'0 0.0
2018-Jan-10 08:57N 36°09' W 005°25'0 0.0
2018-Jan-10 08:30N 36°09' W 005°25'0 0.0
2018-Jan-10 08:00N 36°09' W 005°25'0 0.0
2018-Jan-10 07:27N 36°09' W 005°25'0 0.0
2018-Jan-10 07:00N 36°09' W 005°25'0 0.0
2018-Jan-10 06:30N 36°09' W 005°25'0 0.0
2018-Jan-10 06:00N 36°09' W 005°25'0 0.0
2018-Jan-10 05:30N 36°09' W 005°25'0 0.0
2018-Jan-10 05:00N 36°09' W 005°25'0 0.2
2018-Jan-10 04:30N 36°09' W 005°25'0 0.1
2018-Jan-10 04:00N 36°09' W 005°25'0 0.3
2018-Jan-10 03:30N 36°10' W 005°25'0 0.2
2018-Jan-10 03:00N 36°10' W 005°25'0 0.0
2018-Jan-10 02:30N 36°10' W 005°25'0 0.0
2018-Jan-10 02:00N 36°10' W 005°25'0 0.2
2018-Jan-10 01:30N 36°10' W 005°25'0 0.2
2018-Jan-10 01:00N 36°10' W 005°25'0 0.0
2018-Jan-10 00:30N 36°10' W 005°25'0 0.0
2018-Jan-10 00:00N 36°10' W 005°25'0 0.1
2018-Jan-09 23:30N 36°10' W 005°25'0 0.1
2018-Jan-09 23:00N 36°10' W 005°25'0 0.2
2018-Jan-09 22:30N 36°10' W 005°25'0 0.1
2018-Jan-09 22:00N 36°10' W 005°25'0 0.2
2018-Jan-09 21:30N 36°10' W 005°25'0 0.1
2018-Jan-09 20:57N 36°10' W 005°25'0 0.0
2018-Jan-09 20:30N 36°10' W 005°25'0 0.1
2018-Jan-09 20:00N 36°10' W 005°25'0 0.1
2018-Jan-09 19:30N 36°10' W 005°25'0 0.1
2018-Jan-09 19:00N 36°10' W 005°25'0 0.0
2018-Jan-09 18:30N 36°10' W 005°25'0 0.0
2018-Jan-09 18:00N 36°10' W 005°25'0 0.0
2018-Jan-09 17:30N 36°10' W 005°25'0 0.0
2018-Jan-09 17:00N 36°10' W 005°25'0 0.0
2018-Jan-09 16:30N 36°10' W 005°25'0 0.0
2018-Jan-09 16:00N 36°10' W 005°25'0 0.1
2018-Jan-09 15:30N 36°10' W 005°25'0 0.3
2018-Jan-09 15:00N 36°09' W 005°25'0 0.2
2018-Jan-09 14:30N 36°09' W 005°25'0 0.1
2018-Jan-09 14:00N 36°09' W 005°25'0 0.0
2018-Jan-09 13:30N 36°09' W 005°25'0 0.0
2018-Jan-09 13:00N 36°09' W 005°25'0 0.0
2018-Jan-09 12:30N 36°09' W 005°25'0 0.0
2018-Jan-09 12:00N 36°09' W 005°25'0 0.0
2018-Jan-09 11:30N 36°09' W 005°25'0 0.0
2018-Jan-09 11:00N 36°09' W 005°25'0 0.1
2018-Jan-09 10:30N 36°09' W 005°25'0 0.2
2018-Jan-09 10:00N 36°09' W 005°25'0 0.1
2018-Jan-09 09:30N 36°09' W 005°25'0 0.1
2018-Jan-09 09:00N 36°09' W 005°25'0 0.1
2018-Jan-09 08:30N 36°09' W 005°25'0 0.1
2018-Jan-09 08:00N 36°09' W 005°25'0 0.1
2018-Jan-09 07:30N 36°09' W 005°25'  
Track history (hours):
 
Tides and Currents Weather Stations Pressure Air Temp Water Temp Dewpoint Dewpoint Depression Visibility Wind Speed Wind Dir Waves Ship Positions

Elka Sirius

Last reported at 2018-Jan-19 07:26 UTC. Time now 2018-Jan-19 08:01 UTC.
Position N 50°03' W 005°23'.

Length 189 m; draft 8 m.

Type: Tanker. MMSI: 636012627.

Date/timePositionNaut miles runAvg speedWind from/ knotsBaromVisibWave heightAir tempDewpointWater temp
2018-Jan-19 07:26N 50°03' W 005°23'0 0.0
2018-Jan-19 06:53N 50°03' W 005°23'0 0.0
2018-Jan-19 05:26N 50°03' W 005°23'0 0.0
2018-Jan-19 04:44N 50°03' W 005°23'0 0.0
2018-Jan-19 04:29N 50°03' W 005°23'0 0.0
2018-Jan-19 03:50N 50°03' W 005°23'0 0.1
2018-Jan-19 03:29N 50°03' W 005°23'0 0.1
2018-Jan-19 02:56N 50°03' W 005°23'0 0.1
2018-Jan-19 02:26N 50°03' W 005°23'0 0.1
2018-Jan-19 01:53N 50°03' W 005°23'0 0.1
2018-Jan-19 01:26N 50°03' W 005°23'0 0.0
2018-Jan-19 00:56N 50°03' W 005°23'0 0.0
2018-Jan-19 00:29N 50°03' W 005°23'0 0.0
2018-Jan-18 23:44N 50°03' W 005°23'0 0.4
2018-Jan-18 23:26N 50°03' W 005°23'0 0.2
2018-Jan-18 22:53N 50°03' W 005°23'0 0.0
2018-Jan-18 22:23N 50°03' W 005°23'0 0.1
2018-Jan-18 21:26N 50°03' W 005°23'0 0.1
2018-Jan-18 20:47N 50°03' W 005°23'0 0.8
2018-Jan-18 20:31N 50°03' W 005°23'2 3.9
2018-Jan-18 20:00N 50°01' W 005°24'4 8.4
2018-Jan-18 19:29N 49°57' W 005°26'61 9.7
2018-Jan-18 13:09N 48°55' W 005°28'1 9.3
2018-Jan-18 13:00N 48°54' W 005°27'44 7.3
2018-Jan-18 06:58N 48°10' W 005°32'7 6.9
2018-Jan-18 05:58N 48°04' W 005°31'  
2018-Jan-12 15:00N 36°11' W 005°10'0 0.2
2018-Jan-12 14:30N 36°11' W 005°10'0 0.4
2018-Jan-12 14:00N 36°11' W 005°10'3 5.2
2018-Jan-12 13:28N 36°11' W 005°06'2 4.3
2018-Jan-12 13:00N 36°09' W 005°05'3 5.6
2018-Jan-12 12:30N 36°07' W 005°08'3 5.4
2018-Jan-12 11:59N 36°05' W 005°11'3 6.4
2018-Jan-12 11:31N 36°03' W 005°13'612.1
2018-Jan-12 11:00N 36°05' W 005°21'5 9.9
2018-Jan-12 10:30N 36°09' W 005°24'1 1.1
2018-Jan-12 10:00N 36°09' W 005°25'0 0.0
2018-Jan-12 09:27N 36°09' W 005°25'0 0.1
2018-Jan-12 09:00N 36°09' W 005°25'0 0.0
2018-Jan-12 08:30N 36°09' W 005°25'0 0.0
2018-Jan-12 08:00N 36°09' W 005°25'0 0.0
2018-Jan-12 07:30N 36°09' W 005°25'0 0.1
2018-Jan-12 07:00N 36°09' W 005°25'0 0.0
2018-Jan-12 06:30N 36°09' W 005°25'0 0.0
2018-Jan-12 06:00N 36°09' W 005°25'0 0.1
2018-Jan-12 05:30N 36°09' W 005°25'0 0.0
2018-Jan-12 05:00N 36°09' W 005°25'0 0.1
2018-Jan-12 04:27N 36°09' W 005°25'0 0.0
2018-Jan-12 04:00N 36°09' W 005°25'0 0.1
2018-Jan-12 03:30N 36°09' W 005°25'0 0.1
2018-Jan-12 02:57N 36°09' W 005°25'0 0.0
2018-Jan-12 02:28N 36°09' W 005°25'0 0.0
2018-Jan-12 02:00N 36°09' W 005°25'0 0.0
2018-Jan-12 01:30N 36°09' W 005°25'0 0.0
2018-Jan-12 01:00N 36°09' W 005°25'0 0.0
2018-Jan-12 00:30N 36°09' W 005°25'0 0.0
2018-Jan-12 00:00N 36°09' W 005°25'0 0.0
2018-Jan-11 23:30N 36°09' W 005°25'0 0.0
2018-Jan-11 23:00N 36°09' W 005°25'0 0.0
2018-Jan-11 22:30N 36°09' W 005°25'0 0.0
2018-Jan-11 22:00N 36°09' W 005°25'0 0.1
2018-Jan-11 21:30N 36°09' W 005°25'0 0.0
2018-Jan-11 21:00N 36°09' W 005°25'0 0.0
2018-Jan-11 20:30N 36°09' W 005°25'0 0.0
2018-Jan-11 20:00N 36°09' W 005°25'0 0.0
2018-Jan-11 19:30N 36°09' W 005°25'0 0.0
2018-Jan-11 19:00N 36°09' W 005°25'0 0.1
2018-Jan-11 18:30N 36°09' W 005°25'0 0.0
2018-Jan-11 18:00N 36°09' W 005°25'0 0.0
2018-Jan-11 17:30N 36°09' W 005°25'0 0.0
2018-Jan-11 16:42N 36°09' W 005°25'0 0.1
2018-Jan-11 16:30N 36°09' W 005°25'0 0.0
2018-Jan-11 16:00N 36°09' W 005°25'0 0.0
2018-Jan-11 15:30N 36°09' W 005°25'0 0.0
2018-Jan-11 15:00N 36°09' W 005°25'0 0.1
2018-Jan-11 14:30N 36°09' W 005°25'0 0.0
2018-Jan-11 13:54N 36°09' W 005°25'0 0.1
2018-Jan-11 13:30N 36°09' W 005°25'0 0.0
2018-Jan-11 13:00N 36°09' W 005°25'0 0.0
2018-Jan-11 12:30N 36°09' W 005°25'0 0.0
2018-Jan-11 12:00N 36°09' W 005°25'0 0.0
2018-Jan-11 11:18N 36°09' W 005°25'0 0.1
2018-Jan-11 11:00N 36°09' W 005°25'0 0.0
2018-Jan-11 10:30N 36°09' W 005°25'0 0.0
2018-Jan-11 10:00N 36°09' W 005°25'0 0.0
2018-Jan-11 09:30N 36°09' W 005°25'0 0.1
2018-Jan-11 09:00N 36°09' W 005°25'0 0.0
2018-Jan-11 08:30N 36°09' W 005°25'0 0.0
2018-Jan-11 07:49N 36°09' W 005°25'0 0.0
2018-Jan-11 07:24N 36°09' W 005°25'0 0.0
2018-Jan-11 07:00N 36°09' W 005°25'0 0.0
2018-Jan-11 06:30N 36°09' W 005°25'0 0.0
2018-Jan-11 06:00N 36°09' W 005°25'0 0.0
2018-Jan-11 05:30N 36°09' W 005°25'0 0.1
2018-Jan-11 05:00N 36°09' W 005°25'0 0.1
2018-Jan-11 04:30N 36°09' W 005°25'0 0.0
2018-Jan-11 04:00N 36°09' W 005°25'0 0.0
2018-Jan-11 03:30N 36°09' W 005°25'0 0.0
2018-Jan-11 03:00N 36°09' W 005°25'0 0.0
2018-Jan-11 02:30N 36°09' W 005°25'0 0.0
2018-Jan-11 02:00N 36°09' W 005°25'0 0.0
2018-Jan-11 01:30N 36°09' W 005°25'0 0.0
2018-Jan-11 01:00N 36°09' W 005°25'0 0.0
2018-Jan-11 00:30N 36°09' W 005°25'0 0.0
2018-Jan-11 00:00N 36°09' W 005°25'0 0.0
2018-Jan-10 23:30N 36°09' W 005°25'0 0.0
2018-Jan-10 23:00N 36°09' W 005°25'0 0.0
2018-Jan-10 22:30N 36°09' W 005°25'0 0.1
2018-Jan-10 21:59N 36°09' W 005°25'0 0.0
2018-Jan-10 21:30N 36°09' W 005°25'0 0.0
2018-Jan-10 20:59N 36°09' W 005°25'0 0.0
2018-Jan-10 20:29N 36°09' W 005°25'0 0.0
2018-Jan-10 19:59N 36°09' W 005°25'0 0.0
2018-Jan-10 19:29N 36°09' W 005°25'0 0.0
2018-Jan-10 18:59N 36°09' W 005°25'0 0.0
2018-Jan-10 18:29N 36°09' W 005°25'0 0.0
2018-Jan-10 17:57N 36°09' W 005°25'0 0.0
2018-Jan-10 17:29N 36°09' W 005°25'0 0.0
2018-Jan-10 16:59N 36°09' W 005°25'0 0.1
2018-Jan-10 16:30N 36°09' W 005°25'0 0.0
2018-Jan-10 15:59N 36°09' W 005°25'0 0.0
2018-Jan-10 15:29N 36°09' W 005°25'0 0.0
2018-Jan-10 14:59N 36°09' W 005°25'0 0.0
2018-Jan-10 14:30N 36°09' W 005°25'0 0.0
2018-Jan-10 13:59N 36°09' W 005°25'0 0.0
2018-Jan-10 13:27N 36°09' W 005°25'0 0.0
2018-Jan-10 12:59N 36°09' W 005°25'0 0.1
2018-Jan-10 12:29N 36°09' W 005°25'0 0.0
2018-Jan-10 11:59N 36°09' W 005°25'0 0.0
2018-Jan-10 11:27N 36°09' W 005°25'0 0.0
2018-Jan-10 10:57N 36°09' W 005°25'0 0.0
2018-Jan-10 10:30N 36°09' W 005°25'0 0.0
2018-Jan-10 10:00N 36°09' W 005°25'0 0.0
2018-Jan-10 09:30N 36°09' W 005°25'0 0.0
2018-Jan-10 08:57N 36°09' W 005°25'0 0.0
2018-Jan-10 08:30N 36°09' W 005°25'0 0.0
2018-Jan-10 08:00N 36°09' W 005°25'0 0.0
2018-Jan-10 07:27N 36°09' W 005°25'0 0.0
2018-Jan-10 07:00N 36°09' W 005°25'0 0.0
2018-Jan-10 06:30N 36°09' W 005°25'0 0.0
2018-Jan-10 06:00N 36°09' W 005°25'0 0.0
2018-Jan-10 05:30N 36°09' W 005°25'0 0.0
2018-Jan-10 05:00N 36°09' W 005°25'0 0.2
2018-Jan-10 04:30N 36°09' W 005°25'0 0.1
2018-Jan-10 04:00N 36°09' W 005°25'0 0.3
2018-Jan-10 03:30N 36°10' W 005°25'0 0.2
2018-Jan-10 03:00N 36°10' W 005°25'0 0.0
2018-Jan-10 02:30N 36°10' W 005°25'0 0.0
2018-Jan-10 02:00N 36°10' W 005°25'0 0.2
2018-Jan-10 01:30N 36°10' W 005°25'0 0.2
2018-Jan-10 01:00N 36°10' W 005°25'0 0.0
2018-Jan-10 00:30N 36°10' W 005°25'0 0.0
2018-Jan-10 00:00N 36°10' W 005°25'0 0.1
2018-Jan-09 23:30N 36°10' W 005°25'0 0.1
2018-Jan-09 23:00N 36°10' W 005°25'0 0.2
2018-Jan-09 22:30N 36°10' W 005°25'0 0.1
2018-Jan-09 22:00N 36°10' W 005°25'0 0.2
2018-Jan-09 21:30N 36°10' W 005°25'0 0.1
2018-Jan-09 20:57N 36°10' W 005°25'0 0.0
2018-Jan-09 20:30N 36°10' W 005°25'0 0.1
2018-Jan-09 20:00N 36°10' W 005°25'0 0.1
2018-Jan-09 19:30N 36°10' W 005°25'0 0.1
2018-Jan-09 19:00N 36°10' W 005°25'0 0.0
2018-Jan-09 18:30N 36°10' W 005°25'0 0.0
2018-Jan-09 18:00N 36°10' W 005°25'0 0.0
2018-Jan-09 17:30N 36°10' W 005°25'0 0.0
2018-Jan-09 17:00N 36°10' W 005°25'0 0.0
2018-Jan-09 16:30N 36°10' W 005°25'0 0.0
2018-Jan-09 16:00N 36°10' W 005°25'0 0.1
2018-Jan-09 15:30N 36°10' W 005°25'0 0.3
2018-Jan-09 15:00N 36°09' W 005°25'0 0.2
2018-Jan-09 14:30N 36°09' W 005°25'0 0.1
2018-Jan-09 14:00N 36°09' W 005°25'0 0.0
2018-Jan-09 13:30N 36°09' W 005°25'0 0.0
2018-Jan-09 13:00N 36°09' W 005°25'0 0.0
2018-Jan-09 12:30N 36°09' W 005°25'0 0.0
2018-Jan-09 12:00N 36°09' W 005°25'0 0.0
2018-Jan-09 11:30N 36°09' W 005°25'0 0.0
2018-Jan-09 11:00N 36°09' W 005°25'0 0.1
2018-Jan-09 10:30N 36°09' W 005°25'0 0.2
2018-Jan-09 10:00N 36°09' W 005°25'0 0.1
2018-Jan-09 09:30N 36°09' W 005°25'0 0.1
2018-Jan-09 09:00N 36°09' W 005°25'0 0.1
2018-Jan-09 08:30N 36°09' W 005°25'0 0.1
2018-Jan-09 08:00N 36°09' W 005°25'0 0.1
2018-Jan-09 07:30N 36°09' W 005°25'  

Dump ship's entire track history